createdAt,value
2017-10-30T00:00:24.354Z,91.9
2017-10-30T00:01:26.716Z,92
2017-10-30T00:02:29.097Z,92
2017-10-30T00:03:31.466Z,92
2017-10-30T00:04:33.842Z,92
2017-10-30T00:05:36.205Z,92
2017-10-30T00:06:38.569Z,92
2017-10-30T00:07:41.300Z,92
2017-10-30T00:08:44.020Z,92
2017-10-30T00:09:46.388Z,92
2017-10-30T00:10:48.770Z,91.9
2017-10-30T00:11:51.124Z,92
2017-10-30T00:12:53.499Z,92
2017-10-30T00:13:55.867Z,91.9
2017-10-30T00:14:58.238Z,91.9
2017-10-30T00:16:00.600Z,91.9
2017-10-30T00:17:02.971Z,91.9
2017-10-30T00:18:05.329Z,91.9
2017-10-30T00:19:07.704Z,91.9
2017-10-30T00:20:10.071Z,91.9
2017-10-30T00:21:12.445Z,92
2017-10-30T00:22:14.807Z,91.9
2017-10-30T00:23:17.173Z,91.9
2017-10-30T00:24:19.545Z,91.9
2017-10-30T00:25:21.908Z,92
2017-10-30T00:26:24.267Z,92
2017-10-30T00:27:26.644Z,92
2017-10-30T00:28:29.006Z,92
2017-10-30T00:29:31.379Z,92
2017-10-30T00:30:33.742Z,91.9
2017-10-30T00:31:36.108Z,91.9
2017-10-30T00:32:38.467Z,91.8
2017-10-30T00:33:40.847Z,91.9
2017-10-30T00:34:43.214Z,91.9
2017-10-30T00:35:45.568Z,91.9
2017-10-30T00:36:47.937Z,91.9
2017-10-30T00:37:50.320Z,91.8
2017-10-30T00:38:52.706Z,91.8
2017-10-30T00:39:55.058Z,91.8
2017-10-30T00:40:57.427Z,91.9
2017-10-30T00:41:59.800Z,91.8
2017-10-30T00:43:02.522Z,91.8
2017-10-30T00:44:04.887Z,91.9
2017-10-30T00:45:07.242Z,91.8
2017-10-30T00:46:09.617Z,91.8
2017-10-30T00:47:12.322Z,91.8
2017-10-30T00:48:14.692Z,91.8
2017-10-30T00:49:17.067Z,91.9
2017-10-30T00:50:19.421Z,91.9
2017-10-30T00:51:21.784Z,91.9
2017-10-30T00:52:24.164Z,91.9
2017-10-30T00:53:26.527Z,91.9
2017-10-30T00:54:28.892Z,91.9
2017-10-30T00:55:31.264Z,91.9
2017-10-30T00:56:33.643Z,92
2017-10-30T00:57:36.367Z,92
2017-10-30T00:58:38.740Z,92
2017-10-30T00:59:41.464Z,92
2017-10-30T01:00:43.831Z,91.9
2017-10-30T01:01:46.205Z,92
2017-10-30T01:02:48.566Z,92
2017-10-30T01:03:50.934Z,91.9
2017-10-30T01:04:53.303Z,91.9
2017-10-30T01:05:55.677Z,91.9
2017-10-30T01:06:58.046Z,91.9
2017-10-30T01:08:00.426Z,91.9
2017-10-30T01:09:02.790Z,91.9
2017-10-30T01:10:05.151Z,91.9
2017-10-30T01:11:07.529Z,91.9
2017-10-30T01:12:09.900Z,91.9
2017-10-30T01:13:12.985Z,91.8
2017-10-30T01:14:15.350Z,91.9
2017-10-30T01:15:17.716Z,91.9
2017-10-30T01:16:20.087Z,91.8
2017-10-30T01:17:22.461Z,91.8
2017-10-30T01:18:24.810Z,91.9
2017-10-30T01:19:27.179Z,91.9
2017-10-30T01:20:29.559Z,91.9
2017-10-30T01:21:31.928Z,91.8
2017-10-30T01:22:34.302Z,91.8
2017-10-30T01:23:36.662Z,91.9
2017-10-30T01:24:39.030Z,91.9
2017-10-30T01:25:41.408Z,91.8
2017-10-30T01:26:43.775Z,91.8
2017-10-30T01:27:46.174Z,91.8
2017-10-30T01:28:48.504Z,91.7
2017-10-30T01:29:50.866Z,91.7
2017-10-30T01:30:53.242Z,91.8
2017-10-30T01:31:55.604Z,91.7
2017-10-30T01:32:57.961Z,91.7
2017-10-30T01:34:00.340Z,91.7
2017-10-30T01:35:02.703Z,91.8
2017-10-30T01:36:05.075Z,91.8
2017-10-30T01:37:07.437Z,91.8
2017-10-30T01:38:10.165Z,91.8
2017-10-30T01:39:12.522Z,91.8
2017-10-30T01:40:14.886Z,91.8
2017-10-30T01:41:17.251Z,91.8
2017-10-30T01:42:19.615Z,91.8
2017-10-30T01:43:21.979Z,91.8
2017-10-30T01:44:24.709Z,91.7
2017-10-30T01:45:27.081Z,91.7
2017-10-30T01:46:29.453Z,91.7
2017-10-30T01:47:31.824Z,91.7
2017-10-30T01:48:34.184Z,91.6
2017-10-30T01:49:36.550Z,91.7
2017-10-30T01:50:38.922Z,91.6
2017-10-30T01:51:41.283Z,91.6
2017-10-30T01:52:43.656Z,91.5
2017-10-30T01:53:46.389Z,91.5
2017-10-30T01:54:48.752Z,91.6
2017-10-30T01:55:51.126Z,91.5
2017-10-30T01:56:53.497Z,91.5
2017-10-30T01:57:55.850Z,91.6
2017-10-30T01:58:58.227Z,91.5
2017-10-30T02:00:00.604Z,91.5
2017-10-30T02:01:02.970Z,91.6
2017-10-30T02:02:05.354Z,91.6
2017-10-30T02:03:07.712Z,91.5
2017-10-30T02:04:10.077Z,91.6
2017-10-30T02:05:12.442Z,91.6
2017-10-30T02:06:14.824Z,91.6
2017-10-30T02:07:17.535Z,91.6
2017-10-30T02:08:19.909Z,91.5
2017-10-30T02:09:22.258Z,91.4
2017-10-30T02:10:24.629Z,91.5
2017-10-30T02:11:27.001Z,91.5
2017-10-30T02:12:29.368Z,91.6
2017-10-30T02:13:31.728Z,91.6
2017-10-30T02:14:34.096Z,91.5
2017-10-30T02:15:36.479Z,91.6
2017-10-30T02:16:38.842Z,91.6
2017-10-30T02:17:41.219Z,91.6
2017-10-30T02:18:43.929Z,91.5
2017-10-30T02:19:46.298Z,91.5
2017-10-30T02:20:48.676Z,91.5
2017-10-30T02:21:51.049Z,91.5
2017-10-30T02:22:53.410Z,91.5
2017-10-30T02:23:56.135Z,91.5
2017-10-30T02:24:58.503Z,91.5
2017-10-30T02:26:00.866Z,91.4
2017-10-30T02:27:03.234Z,91.5
2017-10-30T02:28:05.600Z,91.5
2017-10-30T02:29:08.310Z,91.5
2017-10-30T02:30:10.683Z,91.5
2017-10-30T02:31:13.428Z,91.4
2017-10-30T02:32:15.800Z,91.5
2017-10-30T02:33:18.158Z,91.4
2017-10-30T02:34:20.911Z,91.4
2017-10-30T02:35:23.274Z,91.4
2017-10-30T02:36:26.003Z,91.4
2017-10-30T02:37:28.372Z,91.4
2017-10-30T02:38:30.738Z,91.5
2017-10-30T02:39:33.096Z,91.4
2017-10-30T02:40:35.852Z,91.5
2017-10-30T02:41:38.204Z,91.5
2017-10-30T02:42:40.576Z,91.5
2017-10-30T02:43:42.950Z,91.5
2017-10-30T02:44:45.320Z,91.5
2017-10-30T02:45:47.684Z,91.4
2017-10-30T02:46:50.065Z,91.5
2017-10-30T02:47:52.420Z,91.4
2017-10-30T02:48:54.804Z,91.4
2017-10-30T02:49:57.173Z,91.4
2017-10-30T02:50:59.542Z,91.5
2017-10-30T02:52:01.899Z,91.5
2017-10-30T02:53:04.266Z,91.5
2017-10-30T02:54:06.626Z,91.5
2017-10-30T02:55:09.384Z,91.4
2017-10-30T02:56:12.095Z,91.5
2017-10-30T02:57:14.470Z,91.5
2017-10-30T02:58:16.832Z,91.5
2017-10-30T02:59:19.199Z,91.5
2017-10-30T03:00:21.563Z,91.4
2017-10-30T03:01:23.969Z,91.4
2017-10-30T03:02:26.307Z,91.4
2017-10-30T03:03:28.661Z,91.4
2017-10-30T03:04:31.023Z,91.4
2017-10-30T03:05:33.403Z,91.4
2017-10-30T03:06:35.762Z,91.5
2017-10-30T03:07:38.137Z,91.4
2017-10-30T03:08:40.509Z,91.5
2017-10-30T03:09:42.878Z,91.4
2017-10-30T03:10:45.608Z,91.5
2017-10-30T03:11:47.980Z,91.5
2017-10-30T03:12:50.333Z,91.6
2017-10-30T03:13:52.701Z,91.5
2017-10-30T03:14:55.072Z,91.5
2017-10-30T03:15:57.436Z,91.5
2017-10-30T03:17:00.528Z,91.5
2017-10-30T03:18:02.893Z,91.5
2017-10-30T03:19:05.614Z,91.4
2017-10-30T03:20:07.988Z,91.4
2017-10-30T03:21:10.351Z,91.4
2017-10-30T03:22:12.703Z,91.4
2017-10-30T03:23:15.422Z,91.4
2017-10-30T03:24:17.785Z,91.4
2017-10-30T03:25:20.157Z,91.4
2017-10-30T03:26:22.531Z,91.4
2017-10-30T03:27:24.894Z,91.4
2017-10-30T03:28:27.263Z,91.4
2017-10-30T03:29:29.653Z,91.3
2017-10-30T03:30:32.004Z,91.3
2017-10-30T03:31:34.370Z,91.3
2017-10-30T03:32:36.734Z,91.2
2017-10-30T03:33:39.101Z,91.2
2017-10-30T03:34:41.819Z,91.2
2017-10-30T03:35:44.198Z,91.2
2017-10-30T03:36:46.920Z,91.2
2017-10-30T03:37:49.299Z,91.1
2017-10-30T03:38:51.663Z,91.2
2017-10-30T03:39:54.037Z,91.2
2017-10-30T03:40:56.410Z,91.2
2017-10-30T03:41:58.776Z,91.1
2017-10-30T03:43:01.139Z,91.2
2017-10-30T03:44:03.509Z,91.2
2017-10-30T03:45:05.865Z,91.1
2017-10-30T03:46:08.242Z,91.1
2017-10-30T03:47:10.595Z,91.2
2017-10-30T03:48:12.980Z,91.1
2017-10-30T03:49:15.348Z,91.1
2017-10-30T03:50:17.713Z,91.1
2017-10-30T03:51:20.079Z,91.1
2017-10-30T03:52:22.450Z,91.2
2017-10-30T03:53:24.808Z,91.2
2017-10-30T03:54:27.208Z,91.2
2017-10-30T03:55:29.572Z,91.2
2017-10-30T03:56:31.936Z,91.2
2017-10-30T03:57:34.314Z,91.2
2017-10-30T03:58:36.679Z,91.2
2017-10-30T03:59:39.039Z,91.1
2017-10-30T04:00:41.411Z,91.1
2017-10-30T04:01:43.780Z,91.1
2017-10-30T04:02:46.136Z,91.1
2017-10-30T04:03:48.515Z,91.1
2017-10-30T04:04:50.876Z,91.2
2017-10-30T04:05:53.253Z,91.2
2017-10-30T04:06:55.621Z,91.2
2017-10-30T04:07:57.993Z,91.2
2017-10-30T04:09:00.352Z,91.2
2017-10-30T04:10:02.729Z,91.2
2017-10-30T04:11:05.086Z,91.2
2017-10-30T04:12:07.450Z,91.2
2017-10-30T04:13:09.818Z,91.2
2017-10-30T04:14:12.178Z,91.2
2017-10-30T04:15:14.555Z,91.2
2017-10-30T04:16:16.921Z,91.3
2017-10-30T04:17:19.284Z,91.3
2017-10-30T04:18:21.640Z,91.3
2017-10-30T04:19:24.006Z,91.2
2017-10-30T04:20:26.736Z,91.3
2017-10-30T04:21:29.089Z,91.2
2017-10-30T04:22:31.457Z,91.1
2017-10-30T04:23:33.828Z,91.2
2017-10-30T04:24:36.898Z,91.2
2017-10-30T04:25:39.270Z,91.2
2017-10-30T04:26:41.639Z,91.2
2017-10-30T04:27:43.995Z,91.1
2017-10-30T04:28:46.378Z,91.1
2017-10-30T04:29:48.741Z,91.2
2017-10-30T04:30:51.100Z,91.2
2017-10-30T04:31:53.472Z,91.2
2017-10-30T04:32:56.224Z,91.2
2017-10-30T04:33:58.962Z,91.2
2017-10-30T04:35:01.687Z,91.1
2017-10-30T04:36:04.423Z,91.1
2017-10-30T04:37:06.797Z,91.1
2017-10-30T04:38:09.539Z,91.1
2017-10-30T04:39:11.901Z,91.1
2017-10-30T04:40:14.269Z,91.1
2017-10-30T04:41:16.636Z,91.2
2017-10-30T04:42:19.008Z,91.2
2017-10-30T04:43:21.361Z,91.2
2017-10-30T04:44:24.085Z,91.3
2017-10-30T04:45:26.466Z,91.2
2017-10-30T04:46:28.827Z,91.2
2017-10-30T04:47:31.191Z,91.2
2017-10-30T04:48:33.564Z,91.1
2017-10-30T04:49:35.933Z,91.1
2017-10-30T04:50:38.300Z,91.2
2017-10-30T04:51:40.667Z,91.2
2017-10-30T04:52:43.027Z,91.2
2017-10-30T04:53:45.395Z,91.3
2017-10-30T04:54:47.770Z,91.3
2017-10-30T04:55:50.132Z,91.3
2017-10-30T04:56:52.498Z,91.2
2017-10-30T04:57:54.863Z,91.2
2017-10-30T04:58:57.235Z,91.3
2017-10-30T04:59:59.608Z,91.3
2017-10-30T05:01:01.969Z,91.3
2017-10-30T05:02:04.349Z,91.4
2017-10-30T05:03:06.719Z,91.3
2017-10-30T05:04:09.435Z,91.3
2017-10-30T05:05:11.822Z,91.3
2017-10-30T05:06:14.188Z,91.3
2017-10-30T05:07:16.547Z,91.3
2017-10-30T05:08:18.919Z,91.3
2017-10-30T05:09:21.980Z,91.3
2017-10-30T05:10:24.343Z,91.3
2017-10-30T05:11:27.062Z,91.3
2017-10-30T05:12:29.433Z,91.4
2017-10-30T05:13:31.800Z,91.4
2017-10-30T05:14:34.173Z,91.4
2017-10-30T05:15:36.540Z,91.3
2017-10-30T05:16:38.912Z,91.3
2017-10-30T05:17:41.284Z,91.3
2017-10-30T05:18:43.645Z,91.3
2017-10-30T05:19:46.018Z,91.4
2017-10-30T05:20:48.436Z,91.4
2017-10-30T05:21:50.800Z,91.3
2017-10-30T05:22:53.168Z,91.3
2017-10-30T05:23:55.535Z,91.2
2017-10-30T05:24:57.898Z,91.2
2017-10-30T05:26:00.628Z,91.2
2017-10-30T05:27:02.997Z,91.2
2017-10-30T05:28:05.355Z,91.2
2017-10-30T05:29:08.066Z,91.2
2017-10-30T05:30:10.433Z,91.2
2017-10-30T05:31:12.795Z,91.2
2017-10-30T05:32:15.559Z,91.2
2017-10-30T05:33:17.938Z,91.2
2017-10-30T05:34:20.304Z,91.3
2017-10-30T05:35:22.653Z,91.2
2017-10-30T05:36:25.370Z,91.2
2017-10-30T05:37:27.733Z,91.2
2017-10-30T05:38:30.104Z,91.2
2017-10-30T05:39:32.470Z,91.2
2017-10-30T05:40:35.183Z,91.1
2017-10-30T05:41:37.909Z,91.1
2017-10-30T05:42:40.634Z,91.2
2017-10-30T05:43:42.992Z,91.2
2017-10-30T05:44:45.721Z,91.1
2017-10-30T05:45:48.092Z,91.2
2017-10-30T05:46:50.463Z,91.1
2017-10-30T05:47:52.826Z,91
2017-10-30T05:48:55.190Z,91.1
2017-10-30T05:49:57.563Z,91.1
2017-10-30T05:50:59.918Z,91.1
2017-10-30T05:52:02.634Z,91.1
2017-10-30T05:53:05.003Z,91.1
2017-10-30T05:54:07.367Z,91.1
2017-10-30T05:55:11.434Z,91.1
2017-10-30T05:56:14.423Z,91.1
2017-10-30T05:57:16.792Z,91.1
2017-10-30T05:58:19.178Z,91.1
2017-10-30T05:59:21.550Z,91.1
2017-10-30T06:00:23.921Z,91
2017-10-30T06:01:26.290Z,90.9
2017-10-30T06:02:28.657Z,91
2017-10-30T06:03:31.025Z,91
2017-10-30T06:04:33.750Z,91.1
2017-10-30T06:05:36.126Z,91.1
2017-10-30T06:06:38.513Z,91.1
2017-10-30T06:07:41.240Z,91.1
2017-10-30T06:08:43.619Z,91.1
2017-10-30T06:09:46.000Z,91
2017-10-30T06:10:48.361Z,91
2017-10-30T06:11:50.731Z,91
2017-10-30T06:12:53.452Z,91
2017-10-30T06:13:55.824Z,91
2017-10-30T06:14:58.191Z,91
2017-10-30T06:16:00.556Z,91
2017-10-30T06:17:03.924Z,91
2017-10-30T06:18:07.197Z,91
2017-10-30T06:19:09.915Z,91
2017-10-30T06:20:12.298Z,91
2017-10-30T06:21:14.671Z,91
2017-10-30T06:22:17.041Z,91
2017-10-30T06:23:19.762Z,90.9
2017-10-30T06:24:22.398Z,90.9
2017-10-30T06:25:25.056Z,91
2017-10-30T06:26:27.572Z,90.9
2017-10-30T06:27:30.307Z,90.9
2017-10-30T06:28:32.689Z,91
2017-10-30T06:29:35.053Z,91
2017-10-30T06:30:38.164Z,91
2017-10-30T06:31:40.533Z,91
2017-10-30T06:32:43.017Z,91
2017-10-30T06:33:45.376Z,90.9
2017-10-30T06:34:48.418Z,90.9
2017-10-30T06:35:50.763Z,91
2017-10-30T06:36:53.486Z,91
2017-10-30T06:37:55.845Z,91
2017-10-30T06:38:58.378Z,91.1
2017-10-30T06:40:00.777Z,91
2017-10-30T06:41:03.560Z,91
2017-10-30T06:42:05.963Z,91
2017-10-30T06:43:09.138Z,91.1
2017-10-30T06:44:11.516Z,91.1
2017-10-30T06:45:13.889Z,91.2
2017-10-30T06:46:16.651Z,91
2017-10-30T06:47:19.373Z,91.1
2017-10-30T06:48:22.405Z,91.1
2017-10-30T06:49:24.784Z,91.2
2017-10-30T06:50:27.400Z,91.3
2017-10-30T06:51:29.776Z,91.3
2017-10-30T06:52:33.359Z,91.3
2017-10-30T06:53:35.720Z,91.3
2017-10-30T06:54:38.085Z,91.3
2017-10-30T06:55:40.455Z,91.3
2017-10-30T06:56:43.202Z,91.3
2017-10-30T06:57:45.595Z,91.3
2017-10-30T06:58:47.972Z,91.4
2017-10-30T06:59:50.333Z,91.4
2017-10-30T07:00:52.700Z,91.5
2017-10-30T07:01:55.073Z,91.5
2017-10-30T07:02:57.443Z,91.6
2017-10-30T07:03:59.998Z,91.5
2017-10-30T07:05:03.571Z,91.6
2017-10-30T07:06:05.934Z,91.7
2017-10-30T07:07:08.476Z,91.9
2017-10-30T07:08:11.533Z,92.2
2017-10-30T07:09:13.895Z,92.6
2017-10-30T07:10:16.377Z,92.9
2017-10-30T07:11:18.743Z,93.2
2017-10-30T07:12:21.134Z,93.6
2017-10-30T07:13:23.498Z,94
2017-10-30T07:14:25.857Z,94.1
2017-10-30T07:15:28.381Z,93.7
2017-10-30T07:16:30.743Z,93.5
2017-10-30T07:17:33.108Z,93.6
2017-10-30T07:18:35.486Z,93.6
2017-10-30T07:19:37.853Z,93.6
2017-10-30T07:20:40.221Z,93.5
2017-10-30T07:21:42.787Z,93.7
2017-10-30T07:22:45.143Z,93.8
2017-10-30T07:23:47.863Z,94
2017-10-30T07:24:50.238Z,94.1
2017-10-30T07:25:52.600Z,94
2017-10-30T07:26:55.033Z,94
2017-10-30T07:27:57.555Z,93.8
2017-10-30T07:28:59.922Z,93.9
2017-10-30T07:30:02.654Z,94
2017-10-30T07:31:05.024Z,94.2
2017-10-30T07:32:07.980Z,94.1
2017-10-30T07:33:10.342Z,94.2
2017-10-30T07:34:12.700Z,94.3
2017-10-30T07:35:15.074Z,94.5
2017-10-30T07:36:17.441Z,94.7
2017-10-30T07:37:19.815Z,94.6
2017-10-30T07:38:22.188Z,94.2
2017-10-30T07:39:24.548Z,93.6
2017-10-30T07:40:26.926Z,92.8
2017-10-30T07:41:29.665Z,92.4
2017-10-30T07:42:32.036Z,92.5
2017-10-30T07:43:34.406Z,92.4
2017-10-30T07:44:36.779Z,92.1
2017-10-30T07:45:39.144Z,92.1
2017-10-30T07:46:41.526Z,92.1
2017-10-30T07:47:43.909Z,92
2017-10-30T07:48:46.273Z,91.8
2017-10-30T07:49:48.646Z,91.7
2017-10-30T07:50:51.025Z,91.5
2017-10-30T07:51:53.392Z,91
2017-10-30T07:52:55.769Z,91.2
2017-10-30T07:53:58.118Z,91.6
2017-10-30T07:55:00.478Z,91.8
2017-10-30T07:56:02.870Z,91.9
2017-10-30T07:57:05.247Z,92.3
2017-10-30T07:58:07.620Z,92.7
2017-10-30T07:59:09.981Z,93.2
2017-10-30T08:00:12.358Z,93.5
2017-10-30T08:01:14.733Z,93.9
2017-10-30T08:02:17.104Z,94.1
2017-10-30T08:03:19.472Z,94.6
2017-10-30T08:04:21.841Z,95
2017-10-30T08:05:24.206Z,95.5
2017-10-30T08:06:26.589Z,95.7
2017-10-30T08:07:28.952Z,96.1
2017-10-30T08:08:31.703Z,96.5
2017-10-30T08:09:34.083Z,96.1
2017-10-30T08:10:36.462Z,96.1
2017-10-30T08:11:38.842Z,96.6
2017-10-30T08:12:41.214Z,97.2
2017-10-30T08:13:43.593Z,97.5
2017-10-30T08:14:45.968Z,97.4
2017-10-30T08:15:48.344Z,97.5
2017-10-30T08:16:51.070Z,97
2017-10-30T08:17:53.451Z,95.7
2017-10-30T08:18:55.827Z,95.2
2017-10-30T08:19:58.208Z,95.2
2017-10-30T08:21:00.587Z,94.5
2017-10-30T08:22:02.957Z,94.2
2017-10-30T08:23:05.340Z,94.2
2017-10-30T08:24:07.712Z,94.4
2017-10-30T08:25:10.436Z,94.9
2017-10-30T08:26:12.823Z,95.6
2017-10-30T08:27:15.200Z,95.9
2017-10-30T08:28:17.592Z,95.9
2017-10-30T08:29:19.953Z,95.2
2017-10-30T08:30:22.324Z,94.9
2017-10-30T08:31:24.719Z,94.8
2017-10-30T08:32:27.087Z,95
2017-10-30T08:33:29.462Z,95.3
2017-10-30T08:34:31.848Z,95.3
2017-10-30T08:35:34.573Z,95.2
2017-10-30T08:36:36.958Z,94.4
2017-10-30T08:37:39.344Z,94
2017-10-30T08:38:41.727Z,94
2017-10-30T08:39:44.107Z,94.4
2017-10-30T08:40:46.491Z,94.4
2017-10-30T08:41:49.211Z,93.2
2017-10-30T08:42:51.593Z,93.4
2017-10-30T08:43:53.972Z,93.5
2017-10-30T08:44:56.713Z,93.3
2017-10-30T08:45:59.094Z,93.3
2017-10-30T08:47:01.464Z,92.5
2017-10-30T08:48:04.202Z,92.2
2017-10-30T08:49:06.954Z,92.6
2017-10-30T08:50:09.335Z,92.7
2017-10-30T08:51:11.725Z,92
2017-10-30T08:52:14.112Z,92
2017-10-30T08:53:16.486Z,91.7
2017-10-30T08:54:18.875Z,92.3
2017-10-30T08:55:21.261Z,92.7
2017-10-30T08:56:23.637Z,92.1
2017-10-30T08:57:26.024Z,91.9
2017-10-30T08:58:28.399Z,91.8
2017-10-30T08:59:30.788Z,91.8
2017-10-30T09:00:33.204Z,92.3
2017-10-30T09:01:35.583Z,92.8
2017-10-30T09:02:37.954Z,92.9
2017-10-30T09:03:40.727Z,92.9
2017-10-30T09:04:43.111Z,93
2017-10-30T09:05:45.494Z,93
2017-10-30T09:06:47.879Z,92.9
2017-10-30T09:07:50.255Z,92.7
2017-10-30T09:08:52.999Z,92.6
2017-10-30T09:09:55.387Z,92.4
2017-10-30T09:10:57.773Z,92.5
2017-10-30T09:12:00.138Z,92.6
2017-10-30T09:14:07.116Z,92.8
2017-10-30T09:15:09.500Z,92.4
2017-10-30T09:16:11.884Z,92.3
2017-10-30T09:17:14.269Z,92.4
2017-10-30T09:18:17.002Z,91.8
2017-10-30T09:19:19.377Z,91.8
2017-10-30T09:20:21.777Z,92
2017-10-30T09:21:24.151Z,92.6
2017-10-30T09:22:26.892Z,92.8
2017-10-30T09:23:29.974Z,92.4
2017-10-30T09:24:32.363Z,92.1
2017-10-30T09:25:34.745Z,92.4
2017-10-30T09:26:37.485Z,92.4
2017-10-30T09:27:39.861Z,92.5
2017-10-30T09:28:42.242Z,92.7
2017-10-30T09:29:44.631Z,92.3
2017-10-30T09:30:47.022Z,91.9
2017-10-30T09:31:49.403Z,92.1
2017-10-30T09:32:51.787Z,92.7
2017-10-30T09:33:54.178Z,92.3
2017-10-30T09:34:56.566Z,92.4
2017-10-30T09:35:58.956Z,92.5
2017-10-30T09:37:01.337Z,92.5
2017-10-30T09:38:03.716Z,92.7
2017-10-30T09:39:06.119Z,92.4
2017-10-30T09:40:08.511Z,92.2
2017-10-30T09:41:10.895Z,91.9
2017-10-30T09:42:13.340Z,91.6
2017-10-30T09:43:15.725Z,91.6
2017-10-30T09:44:18.122Z,91.9
2017-10-30T09:45:20.509Z,91.7
2017-10-30T09:46:22.883Z,91.5
2017-10-30T09:47:25.271Z,90.8
2017-10-30T09:48:28.009Z,90.8
2017-10-30T09:49:30.400Z,90.7
2017-10-30T09:50:32.793Z,91.3
2017-10-30T09:51:35.175Z,91.3
2017-10-30T09:52:37.567Z,91.6
2017-10-30T09:53:40.341Z,91.4
2017-10-30T09:54:42.736Z,91
2017-10-30T09:55:45.141Z,91.5
2017-10-30T09:56:47.513Z,92
2017-10-30T09:57:49.900Z,91.2
2017-10-30T09:58:52.289Z,91.8
2017-10-30T09:59:54.711Z,92.1
2017-10-30T10:00:57.089Z,92.5
2017-10-30T10:01:59.488Z,92.6
2017-10-30T10:03:02.089Z,93
2017-10-30T10:04:04.482Z,92.9
2017-10-30T10:05:06.883Z,92.8
2017-10-30T10:06:09.265Z,92.4
2017-10-30T10:07:11.662Z,92.2
2017-10-30T10:08:14.217Z,91.9
2017-10-30T10:09:16.788Z,91.2
2017-10-30T10:10:19.190Z,91.4
2017-10-30T10:11:21.965Z,91.4
2017-10-30T10:12:24.337Z,91.3
2017-10-30T10:13:27.304Z,92.1
2017-10-30T10:14:29.701Z,92.4
2017-10-30T10:15:32.093Z,92.3
2017-10-30T10:16:34.486Z,92.4
2017-10-30T10:17:36.882Z,92.3
2017-10-30T10:18:39.630Z,92.3
2017-10-30T10:19:42.778Z,92.9
2017-10-30T10:20:45.169Z,92.7
2017-10-30T10:21:47.556Z,92.3
2017-10-30T10:22:49.965Z,91.8
2017-10-30T10:23:52.349Z,91.9
2017-10-30T10:24:55.122Z,91.4
2017-10-30T10:25:57.503Z,91.5
2017-10-30T10:26:59.880Z,91.6
2017-10-30T10:28:02.496Z,90.2
2017-10-30T10:29:04.894Z,90.2
2017-10-30T10:30:07.278Z,89.4
2017-10-30T10:31:09.667Z,89.5
2017-10-30T10:32:12.293Z,90.9
2017-10-30T10:33:14.678Z,91.3
2017-10-30T10:34:17.068Z,92
2017-10-30T10:35:19.474Z,92.5
2017-10-30T10:36:21.837Z,91.8
2017-10-30T10:37:24.370Z,92.1
2017-10-30T10:38:26.751Z,92.4
2017-10-30T10:39:29.143Z,92.7
2017-10-30T10:40:31.535Z,93.1
2017-10-30T10:41:34.268Z,93.4
2017-10-30T10:42:36.651Z,93.5
2017-10-30T10:43:39.057Z,93
2017-10-30T10:44:41.445Z,93.5
2017-10-30T10:45:43.916Z,94
2017-10-30T10:46:46.310Z,94.1
2017-10-30T10:47:48.696Z,93.4
2017-10-30T10:48:51.075Z,92.1
2017-10-30T10:49:53.586Z,92.3
2017-10-30T10:50:55.966Z,92.7
2017-10-30T10:51:58.353Z,92.2
2017-10-30T10:53:00.823Z,92.1
2017-10-30T10:54:03.214Z,91.9
2017-10-30T10:55:05.595Z,90.2
2017-10-30T10:56:07.991Z,90
2017-10-30T10:57:10.380Z,91
2017-10-30T10:58:12.767Z,90.3
2017-10-30T10:59:15.156Z,91.6
2017-10-30T11:00:17.559Z,92.3
2017-10-30T11:01:19.946Z,92.7
2017-10-30T11:02:22.331Z,93.2
2017-10-30T11:03:24.871Z,93.5
2017-10-30T11:04:27.257Z,93.5
2017-10-30T11:05:29.950Z,92
2017-10-30T11:06:32.334Z,92.3
2017-10-30T11:07:34.710Z,92.6
2017-10-30T11:08:37.096Z,92
2017-10-30T11:09:39.493Z,91.6
2017-10-30T11:10:42.245Z,92.1
2017-10-30T11:11:44.633Z,92.1
2017-10-30T11:12:47.022Z,91.9
2017-10-30T11:13:49.425Z,91.1
2017-10-30T11:14:51.813Z,91.6
2017-10-30T11:15:54.202Z,90.9
2017-10-30T11:16:56.587Z,90.1
2017-10-30T11:17:58.968Z,90.5
2017-10-30T11:19:01.387Z,91.3
2017-10-30T11:20:04.105Z,90.5
2017-10-30T11:21:06.861Z,87.5
2017-10-30T11:22:09.251Z,88.4
2017-10-30T11:23:11.645Z,90.2
2017-10-30T11:24:14.391Z,90.6
2017-10-30T11:25:16.785Z,89.1
2017-10-30T11:26:19.524Z,89.2
2017-10-30T11:27:21.917Z,88.8
2017-10-30T11:28:24.310Z,90.3
2017-10-30T11:29:26.694Z,90.5
2017-10-30T11:30:29.443Z,90
2017-10-30T11:31:31.837Z,91.1
2017-10-30T11:32:34.218Z,91.8
2017-10-30T11:33:36.595Z,92.3
2017-10-30T11:34:38.996Z,92.4
2017-10-30T11:35:41.375Z,92.9
2017-10-30T11:36:43.782Z,92.1
2017-10-30T11:37:46.175Z,90.7
2017-10-30T11:38:48.556Z,89.2
2017-10-30T11:39:50.940Z,88.8
2017-10-30T11:40:53.336Z,90.5
2017-10-30T11:41:55.711Z,91.6
2017-10-30T11:42:58.107Z,90.6
2017-10-30T11:44:00.489Z,90.2
2017-10-30T11:45:03.234Z,90.2
2017-10-30T11:46:05.626Z,90
2017-10-30T11:47:07.998Z,89.3
2017-10-30T11:48:10.384Z,89
2017-10-30T11:49:12.775Z,86.5
2017-10-30T11:50:15.156Z,84.8
2017-10-30T11:51:17.553Z,84.3
2017-10-30T11:52:19.934Z,83.8
2017-10-30T11:53:22.331Z,82.9
2017-10-30T11:54:24.716Z,83.9
2017-10-30T11:55:27.102Z,84.2
2017-10-30T11:56:29.687Z,84.5
2017-10-30T11:57:32.062Z,84.1
2017-10-30T11:58:34.439Z,82.9
2017-10-30T11:59:36.837Z,85.5
2017-10-30T12:00:39.218Z,86.6
2017-10-30T12:01:41.594Z,85.7
2017-10-30T12:02:43.983Z,85.7
2017-10-30T12:03:46.722Z,85.5
2017-10-30T12:04:49.459Z,86.1
2017-10-30T12:05:51.851Z,89.4
2017-10-30T12:06:54.219Z,90.5
2017-10-30T12:07:56.604Z,90.5
2017-10-30T12:08:58.991Z,86.9
2017-10-30T12:10:01.370Z,85.9
2017-10-30T12:11:03.753Z,85.8
2017-10-30T12:12:06.139Z,88.3
2017-10-30T12:13:08.877Z,87.9
2017-10-30T12:14:11.261Z,86.8
2017-10-30T12:15:13.640Z,85.2
2017-10-30T12:16:16.020Z,84.4
2017-10-30T12:17:18.398Z,84.3
2017-10-30T12:18:20.792Z,85.2
2017-10-30T12:19:23.537Z,88.1
2017-10-30T12:20:25.924Z,89
2017-10-30T12:21:28.302Z,90.3
2017-10-30T12:22:30.697Z,85.7
2017-10-30T12:23:33.083Z,88.2
2017-10-30T12:24:35.467Z,87.6
2017-10-30T12:25:37.837Z,86.5
2017-10-30T12:26:40.221Z,88.1
2017-10-30T12:27:42.604Z,89.1
2017-10-30T12:28:44.982Z,87.6
2017-10-30T12:29:47.359Z,89.3
2017-10-30T12:30:49.748Z,90
2017-10-30T12:31:52.484Z,88.9
2017-10-30T12:32:54.874Z,90.1
2017-10-30T12:33:57.257Z,90.4
2017-10-30T12:34:59.645Z,90.5
2017-10-30T12:36:02.028Z,90.2
2017-10-30T12:37:04.413Z,89.3
2017-10-30T12:38:06.783Z,87.2
2017-10-30T12:39:09.167Z,86.6
2017-10-30T12:40:11.553Z,87.9
2017-10-30T12:41:13.926Z,87.6
2017-10-30T12:42:16.674Z,86.3
2017-10-30T12:43:19.059Z,86.5
2017-10-30T12:44:21.462Z,87.8
2017-10-30T12:45:23.819Z,89.6
2017-10-30T12:46:26.197Z,90.2
2017-10-30T12:47:28.582Z,90
2017-10-30T12:48:30.973Z,90.5
2017-10-30T12:49:33.349Z,90.7
2017-10-30T12:50:35.724Z,90.4
2017-10-30T12:51:38.115Z,90.4
2017-10-30T12:52:40.490Z,90.2
2017-10-30T12:53:42.875Z,90.7
2017-10-30T12:54:45.259Z,90.5
2017-10-30T12:55:47.640Z,90.5
2017-10-30T12:56:50.377Z,90.7
2017-10-30T12:57:52.756Z,90.7
2017-10-30T12:58:55.137Z,90.1
2017-10-30T12:59:57.527Z,90
2017-10-30T13:01:00.264Z,89.6
2017-10-30T13:02:02.643Z,89.4
2017-10-30T13:03:05.041Z,88.3
2017-10-30T13:04:07.797Z,89.1
2017-10-30T13:05:10.194Z,89.4
2017-10-30T13:06:12.927Z,88.5
2017-10-30T13:07:15.310Z,87.7
2017-10-30T13:08:17.691Z,87
2017-10-30T13:09:20.075Z,86.2
2017-10-30T13:10:22.462Z,85.9
2017-10-30T13:11:24.845Z,86.9
2017-10-30T13:12:27.222Z,87.2
2017-10-30T13:13:29.613Z,86.2
2017-10-30T13:14:31.994Z,87.2
2017-10-30T13:15:34.819Z,87.5
2017-10-30T13:16:37.548Z,88.7
2017-10-30T13:17:40.770Z,89
2017-10-30T13:18:43.164Z,88.7
2017-10-30T13:19:45.550Z,89.2
2017-10-30T13:20:48.042Z,88.8
2017-10-30T13:21:50.519Z,88.6
2017-10-30T13:22:52.886Z,87.5
2017-10-30T13:23:55.405Z,86.9
2017-10-30T13:24:57.797Z,87.1
2017-10-30T13:26:00.543Z,86.3
2017-10-30T13:27:02.927Z,86.2
2017-10-30T13:28:05.320Z,86.2
2017-10-30T13:29:07.708Z,85.8
2017-10-30T13:30:10.073Z,87.2
2017-10-30T13:31:12.462Z,86.2
2017-10-30T13:32:14.842Z,85.2
2017-10-30T13:33:17.224Z,85.8
2017-10-30T13:34:19.605Z,85.8
2017-10-30T13:35:22.341Z,85.2
2017-10-30T13:36:24.996Z,84.9
2017-10-30T13:37:27.389Z,84.9
2017-10-30T13:38:29.792Z,85.7
2017-10-30T13:39:32.365Z,85.6
2017-10-30T13:40:34.746Z,85.1
2017-10-30T13:41:37.120Z,85.1
2017-10-30T13:42:39.511Z,84.2
2017-10-30T13:43:41.911Z,83.2
2017-10-30T13:44:44.283Z,83.1
2017-10-30T13:46:31.883Z,83.3
2017-10-30T13:47:34.326Z,83.4
2017-10-30T13:48:36.744Z,83.5
2017-10-30T13:49:39.176Z,84.3
2017-10-30T13:50:41.611Z,84.7
2017-10-30T13:51:44.059Z,84.8
2017-10-30T13:52:46.491Z,84.2
2017-10-30T13:53:49.034Z,83.5
2017-10-30T13:54:52.099Z,83.8
2017-10-30T13:55:57.217Z,83.3
2017-10-30T13:56:59.692Z,84.2
2017-10-30T13:58:02.469Z,84.1
2017-10-30T13:59:04.953Z,84.1